Schofield, WI

9:06 AM CDT on August 31, 2015 (GMT -0500)
Wausau Downtown | | Change Station
CLOSE
Current Station
Airport
Location: Wausau,
Elevation: 1201 ft
Nearby Weather Stations

Elev 1201 ft 44.93 °N, 89.63 °W | Updated 57 minutes ago

Overcast
Overcast
62 °F
Feels Like 62 °F
N
5
Wind Variable Wind from SSW

Today
High -- | Low -- °F
--% Chance of Precip.
Yesterday
High -- | Low -- °F
Precip. -- in
6:19 AM 7:37 PM
Waning Gibbous, 95% visible
Pressure 30.02 in
Visibility 3.0 miles
Clouds Mostly Cloudy 300 ft
Overcast 900 ft
Dew Point 62 °F
Humidity 100%
Rainfall 0.00 in
Snow Depth Not available.
UV 0 out of 12
Pollen 10.20 out of 12
Air Quality Not available.
Flu Activity Not available.
METAR KAUW 311309Z AUTO 20004KT 3SM BR BKN003 OVC009 17/17 A3002 RMK AO2 T01670167
Pressure 30.02 in
Visibility 3.0 miles
Clouds Mostly Cloudy 300 ft
Overcast 900 ft
Dew Point 62 °F
Humidity 100%
Rainfall 0.00 in
Snow Depth Not available.
UV 0 out of 12
Pollen 10.20 out of 12
Air Quality Not available.
Flu Activity Not available.
METAR KAUW 311309Z AUTO 20004KT 3SM BR BKN003 OVC009 17/17 A3002 RMK AO2 T01670167

10-Day Weather Forecast

×

Almanac

Astronomy

Aug. 31, 2015 Rise Set
Actual Time
Civil Twilight
Nautical Twilight
Astronomical Twilight
Moon
Length of Visible Light
Length of Day
Tomorrow will be .
, % of the Moon is Illuminated

Today's Extremes

State Highs State Lows

Community

WunderPhotos

Upload Photos

1,851,243 photos uploaded!

WunderBlogs® & News

Nearby

Air Quality

  Air Quality AQ Index Pollutant
Not available.

Snow Depth

Station Depth Elevation

Earthquake Activity

City Distance Mag. Time & Date
Minimum magnitude displayed is 2.5.

Coastal Water Temperatures

Place Temperature

Stations

Nearby Weather Stations

Station Location Temp. Windchill Dew Point Humidity Wind Precip. Elev Updated Type